KOXC/OXC METAR and TAF weather

Enter ICAO airport designator
Station Type Date Time Source
KOXC METAR 2019/12/12 16:51 UTC NOAA

KOXC 121651Z 32007KT 10SM CLR M02/M09 A3068 RMK AO2 SLP412 T10221094


Station Type Date Time Source
KOXC Decoded METAR 2019/12/12 16:51 UTC NOAA

Oxford, Waterbury-Oxford Airport, CT, United States (KOXC) 41-29N 073-08W
Dec 12, 2019 - 11:51 AM EST / 2019.12.12 1651 UTC
Wind: from the NW (320 degrees) at 8 MPH (7 KT):0
Visibility: 10 mile(s):0
Sky conditions: clear
Temperature: 28.0 F (-2.2 C)
Windchill: 19 F (-7 C):1
Dew Point: 15.1 F (-9.4 C)
Relative Humidity: 57%
Pressure (altimeter): 30.68 in. Hg (1038 hPa)
ob: KOXC 121651Z 32007KT 10SM CLR M02/M09 A3068 RMK AO2 SLP412 T10221094
cycle: 17

Station Type Date Time Source
KOXC TAF UTC NOAA

Error!

Example: see airport list